Time;durP1;ratioP1;P1;durP2;ratioP2;P2;SDS_P1;SDS_P2;PMS_P1;PMS_P2;Temp;Humidity;BMP_temperature;BMP_pressure;BME280_temperature;BME280_humidity;BME280_pressure;Samples;Min_cycle;Max_cycle;Signal;HPM_P1;HPM_P2
2021/08/10 00:03:54;;;;;;;8.70;5.27;;;;;;;14.68;65.11;99872.24;529866;1092;115594;-64
2021/08/10 00:14:01;;;;;;;7.00;4.60;;;;;;;14.53;66.21;99868.97;529154;1093;116550;-62
2021/08/10 00:24:08;;;;;;;9.37;5.43;;;;;;;14.36;66.65;99872.89;530506;1092;116300;-63
2021/08/10 00:34:14;;;;;;;6.43;4.53;;;;;;;14.11;66.57;99866.81;524985;1092;116549;-62
2021/08/10 00:44:21;;;;;;;12.33;5.23;;;;;;;13.94;66.96;99866.28;529201;1092;173886;-64
2021/08/10 00:54:27;;;;;;;4.77;3.70;;;;;;;13.80;67.40;99867.30;529910;1093;116970;-64
2021/08/10 01:04:36;;;;;;;4.93;4.33;;;;;;;13.68;67.95;99861.13;529666;1092;116409;-65
2021/08/10 01:14:51;;;;;;;8.93;3.75;;;;;;;13.57;68.44;99861.07;530289;1093;116607;-62
2021/08/10 01:25:10;;;;;;;6.23;4.37;;;;;;;13.43;68.71;99860.22;530273;1093;115710;-63
2021/08/10 01:35:16;;;;;;;;;;;;;;;13.32;68.86;99857.50;529170;1093;115966;-63
2021/08/10 01:45:24;;;;;;;5.47;4.00;;;;;;;13.18;68.92;99859.33;531018;1093;102847;-63
2021/08/10 01:55:32;;;;;;;9.00;4.17;;;;;;;13.11;69.26;99847.55;518531;1092;116562;-63
2021/08/10 02:05:42;;;;;;;7.48;4.75;;;;;;;13.20;68.75;99843.41;530178;1093;116168;-63
2021/08/10 02:15:50;;;;;;;24.70;6.30;;;;;;;13.35;68.56;99837.98;530362;1092;116454;-64
2021/08/10 02:25:56;;;;;;;;;;;;;;;13.26;68.70;99831.59;529427;1092;117424;-64
2021/08/10 02:36:04;;;;;;;8.50;4.08;;;;;;;13.08;68.96;99824.02;530154;1093;102261;-63
2021/08/10 02:46:10;;;;;;;6.85;4.25;;;;;;;13.04;69.19;99830.47;530937;1092;116221;-63
2021/08/10 02:56:20;;;;;;;22.00;7.17;;;;;;;12.99;69.39;99830.80;529969;1092;116527;-62
2021/08/10 03:06:29;;;;;;;22.33;5.83;;;;;;;12.96;70.13;99835.44;530722;1092;116106;-63
2021/08/10 03:16:37;;;;;;;10.27;5.80;;;;;;;13.04;70.22;99830.47;529689;1092;116618;-62
2021/08/10 03:26:44;;;;;;;17.07;5.43;;;;;;;13.22;70.07;99820.41;530543;1092;117208;-63
2021/08/10 03:36:51;;;;;;;7.90;4.83;;;;;;;13.41;69.54;99817.28;530549;1092;118146;-63
2021/08/10 03:46:58;;;;;;;14.87;4.47;;;;;;;13.69;69.69;99827.66;529744;1092;115916;-63
2021/08/10 03:57:06;;;;;;;23.07;5.27;;;;;;;14.08;69.65;99817.75;530898;1093;116671;-64
2021/08/10 04:07:13;;;;;;;23.18;6.90;;;;;;;14.57;68.84;99814.95;513917;1093;116958;-63
2021/08/10 04:17:20;;;;;;;21.20;6.57;;;;;;;15.00;68.70;99829.27;530185;1092;117127;-63
2021/08/10 04:27:27;;;;;;;10.27;4.90;;;;;;;15.62;67.57;99842.04;530957;1093;116432;-64
2021/08/10 04:37:33;;;;;;;7.37;4.07;;;;;;;16.16;66.28;99831.48;524313;1093;117305;-63
2021/08/10 04:47:40;;;;;;;14.15;4.20;;;;;;;16.77;64.71;99827.23;512484;1093;118105;-64
2021/08/10 04:57:46;;;;;;;7.15;4.20;;;;;;;17.50;63.24;99819.09;512860;1091;116519;-62
2021/08/10 05:07:53;;;;;;;18.17;5.60;;;;;;;20.28;62.59;99823.97;511913;1093;117240;-64
2021/08/10 05:17:59;;;;;;;7.90;3.93;;;;;;;30.75;50.98;99814.09;515072;1092;116470;-63
2021/08/10 05:28:07;;;;;;;5.83;3.20;;;;;;;36.65;40.06;99815.28;530798;1092;117776;-63
2021/08/10 05:38:14;;;;;;;3.13;2.83;;;;;;;39.34;33.28;99804.00;526025;1093;116425;-66
2021/08/10 05:48:23;;;;;;;6.67;2.33;;;;;;;36.41;30.92;99785.63;530817;1092;117539;-65
2021/08/10 05:58:30;;;;;;;4.73;2.10;;;;;;;41.62;28.11;99788.63;525450;1092;116607;-63
2021/08/10 06:08:36;;;;;;;5.58;3.35;;;;;;;36.19;27.95;99772.98;530924;1093;116418;-63
2021/08/10 06:18:43;;;;;;;6.10;2.10;;;;;;;38.01;28.78;99760.47;530935;1092;116517;-64
2021/08/10 06:28:49;;;;;;;4.33;2.25;;;;;;;42.94;24.61;99765.36;530186;1092;116384;-64
2021/08/10 06:38:56;;;;;;;13.33;4.45;;;;;;;37.69;24.85;99764.33;530745;1092;116709;-64
2021/08/10 06:49:02;;;;;;;2.30;2.10;;;;;;;35.43;27.90;99761.18;530945;1093;116485;-63
2021/08/10 06:59:09;;;;;;;8.48;2.80;;;;;;;37.09;26.76;99760.18;529644;1092;116921;-64
2021/08/10 07:09:17;;;;;;;2.10;1.73;;;;;;;45.88;22.15;99757.89;526310;1093;116664;-64
2021/08/10 07:19:23;;;;;;;3.63;1.90;;;;;;;49.52;18.84;99773.58;530998;1092;118160;-64
2021/08/10 07:29:30;;;;;;;3.70;2.30;;;;;;;51.60;16.99;99759.25;530731;1092;117592;-64
2021/08/10 07:39:36;;;;;;;3.70;1.40;;;;;;;45.62;16.94;99746.88;530954;1092;117618;-64
2021/08/10 07:49:42;;;;;;;1.95;1.55;;;;;;;44.40;17.55;99752.16;530281;1092;116275;-64
2021/08/10 07:59:49;;;;;;;1.90;1.08;;;;;;;43.91;17.11;99752.16;530936;1092;116031;-64
2021/08/10 08:09:56;;;;;;;2.90;1.70;;;;;;;43.96;17.30;99752.83;530969;1093;116382;-63
2021/08/10 08:20:03;;;;;;;1.40;1.27;;;;;;;42.35;18.33;99744.00;530255;1093;116396;-62
2021/08/10 08:30:11;;;;;;;2.20;1.63;;;;;;;38.86;19.87;99733.22;530963;1092;115943;-62
2021/08/10 08:40:19;;;;;;;1.30;1.00;;;;;;;36.09;21.78;99734.67;530765;1092;116458;-62
2021/08/10 08:50:26;;;;;;;2.43;1.50;;;;;;;34.97;22.60;99726.09;526842;1093;116910;-63
2021/08/10 09:00:34;;;;;;;2.60;1.40;;;;;;;34.35;23.29;99723.48;530977;1092;116412;-63
2021/08/10 09:10:41;;;;;;;1.20;1.10;;;;;;;34.35;23.81;99718.88;512410;1092;10001776;-63
2021/08/10 09:21:03;;;;;;;3.53;1.20;;;;;;;34.11;23.83;99710.11;530883;1092;117716;-63
2021/08/10 09:31:36;;;;;;;1.75;1.40;;;;;;;34.02;24.79;99695.28;529901;1092;116774;-62
2021/08/10 09:42:03;;;;;;;1.90;1.50;;;;;;;34.35;25.19;99682.61;528305;1091;117364;-62
2021/08/10 09:52:23;;;;;;;2.50;1.53;;;;;;;33.70;25.28;99668.66;517032;1092;115794;-62
2021/08/10 10:02:33;;;;;;;3.17;1.80;;;;;;;33.26;26.17;99676.43;526734;1092;116262;-62
2021/08/10 10:12:42;;;;;;;3.33;1.63;;;;;;;33.02;26.44;99678.50;512569;1092;116482;-62
2021/08/10 10:22:49;;;;;;;4.00;2.85;;;;;;;32.90;26.45;99664.09;519689;1092;117342;-62
2021/08/10 10:32:58;;;;;;;2.90;1.87;;;;;;;32.61;27.13;99654.09;530121;1093;117967;-61
2021/08/10 10:43:05;;;;;;;4.00;1.70;;;;;;;32.34;28.03;99640.23;530862;1092;116488;-62
2021/08/10 10:53:22;;;;;;;1.43;1.33;;;;;;;32.11;27.97;99618.32;529273;1092;117007;-62
2021/08/10 11:03:29;;;;;;;5.23;2.40;;;;;;;31.39;28.80;99619.47;530863;1092;116269;-63
2021/08/10 11:13:42;;;;;;;4.17;3.00;;;;;;;30.74;30.18;99619.23;517373;1092;116708;-62
2021/08/10 11:23:50;;;;;;;6.37;3.07;;;;;;;30.14;30.62;99599.19;519518;1092;116175;-62
2021/08/10 11:33:56;;;;;;;3.97;1.43;;;;;;;30.99;30.31;99581.08;513946;1092;116762;-62
2021/08/10 11:44:06;;;;;;;4.00;1.73;;;;;;;30.74;30.36;99568.55;529402;1091;116757;-63
2021/08/10 11:54:16;;;;;;;2.67;1.80;;;;;;;30.71;30.21;99549.25;530332;1093;116048;-64
2021/08/10 12:04:24;;;;;;;6.90;2.20;;;;;;;30.53;31.56;99545.52;520145;1093;116248;-62
2021/08/10 12:14:33;;;;;;;5.27;2.63;;;;;;;30.34;31.12;99544.75;523654;1093;116992;-61
2021/08/10 12:24:41;;;;;;;6.17;3.20;;;;;;;29.15;32.76;99544.83;518757;1091;115962;-61
2021/08/10 12:34:47;;;;;;;4.90;3.63;;;;;;;27.13;37.41;99602.36;530141;1092;116500;-61
2021/08/10 12:44:56;;;;;;;4.63;2.43;;;;;;;24.72;41.37;99580.16;521484;1092;116818;-63
2021/08/10 12:55:02;;;;;;;3.17;2.87;;;;;;;24.17;43.86;99552.92;525570;1092;116534;-64
2021/08/10 13:05:12;;;;;;;2.93;1.97;;;;;;;24.38;44.52;99551.30;518794;1092;116711;-61
2021/08/10 13:15:19;;;;;;;1.68;1.58;;;;;;;24.29;43.57;99550.59;523156;1092;116808;-61
2021/08/10 13:25:27;;;;;;;3.00;1.68;;;;;;;24.38;43.28;99516.42;513032;1091;116604;-61
2021/08/10 13:35:34;;;;;;;2.60;2.05;;;;;;;24.39;43.33;99505.52;523605;1092;116501;-62
2021/08/10 13:45:42;;;;;;;3.73;2.43;;;;;;;23.97;44.39;99475.75;529959;1093;117535;-62
2021/08/10 13:56:09;;;;;;;5.37;2.33;;;;;;;23.71;45.39;99454.82;530225;1092;116934;-70
2021/08/10 14:06:15;;;;;;;2.47;1.87;;;;;;;23.57;45.60;99451.13;515955;1093;115480;-64
2021/08/10 14:16:23;;;;;;;4.53;2.03;;;;;;;23.81;46.28;99423.19;529017;1092;116025;-61
2021/08/10 14:26:30;;;;;;;1.93;1.83;;;;;;;24.10;45.98;99426.80;530825;1092;117565;-63
2021/08/10 14:36:36;;;;;;;1.73;1.63;;;;;;;24.29;44.88;99427.20;530929;1092;116173;-62
2021/08/10 14:46:46;;;;;;;2.27;1.80;;;;;;;24.39;45.47;99414.28;530223;1092;116566;-63
2021/08/10 14:56:53;;;;;;;2.38;1.93;;;;;;;24.47;45.91;99392.69;530736;1092;116164;-59
2021/08/10 15:07:00;;;;;;;2.20;2.00;;;;;;;24.47;45.41;99381.95;526235;1092;115904;-61
2021/08/10 15:17:07;;;;;;;2.20;2.00;;;;;;;24.25;45.58;99370.41;530196;1092;116523;-60
2021/08/10 15:27:14;;;;;;;2.20;2.10;;;;;;;23.91;46.59;99363.88;514406;1092;10001739;-57
2021/08/10 15:37:21;;;;;;;3.00;2.00;;;;;;;23.69;47.28;99360.38;524050;1091;116380;-60
2021/08/10 15:47:28;;;;;;;2.30;2.10;;;;;;;23.68;48.64;99358.72;524460;1092;116578;-59
2021/08/10 15:57:35;;;;;;;2.57;2.27;;;;;;;23.41;49.38;99353.05;526414;1092;116917;-59
2021/08/10 16:07:42;;;;;;;2.53;2.03;;;;;;;23.13;50.36;99346.50;513722;1093;116962;-59
2021/08/10 16:17:49;;;;;;;4.57;2.60;;;;;;;22.88;51.01;99354.83;530947;1092;116142;-60
2021/08/10 16:27:57;;;;;;;7.80;2.97;;;;;;;22.29;54.03;99476.73;523942;1092;115987;-59
2021/08/10 16:38:04;;;;;;;9.07;3.03;;;;;;;20.23;56.88;99594.34;530264;1092;116318;-59
2021/08/10 16:48:10;;;;;;;4.37;1.77;;;;;;;18.86;58.71;99444.95;531032;1092;116302;-59
2021/08/10 16:58:17;;;;;;;3.40;1.80;;;;;;;18.78;60.56;99434.27;530944;1091;117091;-59
2021/08/10 17:08:24;;;;;;;3.30;1.93;;;;;;;19.09;61.10;99429.34;526877;1093;116121;-61
2021/08/10 17:18:30;;;;;;;2.97;2.50;;;;;;;20.00;60.60;99427.05;530803;1093;116035;-61
2021/08/10 17:28:37;;;;;;;2.30;2.10;;;;;;;19.79;61.43;99434.62;530154;1092;116518;-61
2021/08/10 17:38:44;;;;;;;3.40;2.53;;;;;;;19.54;62.88;99432.70;530837;1092;116152;-60
2021/08/10 17:48:51;;;;;;;2.90;2.67;;;;;;;19.10;63.84;99430.16;530989;1092;116212;-60
2021/08/10 17:58:59;;;;;;;3.40;2.75;;;;;;;18.66;65.02;99425.70;529888;1093;116367;-61
2021/08/10 18:09:05;;;;;;;4.60;2.98;;;;;;;18.21;65.88;99430.98;512223;1092;10001860;-60
2021/08/10 18:19:12;;;;;;;3.77;2.77;;;;;;;17.77;66.99;99429.84;528349;1092;116722;-60
2021/08/10 18:29:19;;;;;;;6.80;3.37;;;;;;;17.40;68.20;99429.92;529122;1092;117379;-61
2021/08/10 18:39:25;;;;;;;7.27;4.43;;;;;;;17.09;69.21;99429.19;522709;1093;117045;-64
2021/08/10 18:49:38;;;;;;;4.60;4.20;;;;;;;16.87;69.82;99437.45;521875;1092;116209;-64
2021/08/10 18:59:45;;;;;;;5.53;4.60;;;;;;;16.66;70.75;99449.06;513950;1093;116421;-63
2021/08/10 19:09:52;;;;;;;8.45;4.00;;;;;;;16.39;72.02;99446.17;526963;1092;116715;-62
2021/08/10 19:19:59;;;;;;;7.90;4.23;;;;;;;16.14;72.11;99452.84;529917;1092;116180;-63
2021/08/10 19:30:08;;;;;;;6.33;4.80;;;;;;;15.88;72.35;99463.08;527661;1092;116893;-63
2021/08/10 19:40:16;;;;;;;5.40;4.47;;;;;;;15.73;73.22;99457.33;523738;1093;115699;-60
2021/08/10 19:50:22;;;;;;;7.63;4.55;;;;;;;15.60;73.62;99463.70;530101;1092;116493;-62
2021/08/10 20:00:31;;;;;;;5.10;4.23;;;;;;;15.45;74.33;99479.09;521137;1092;10001260;-58
2021/08/10 20:10:38;;;;;;;9.57;5.03;;;;;;;15.32;74.30;99475.83;527356;1092;116604;-58
2021/08/10 20:20:45;;;;;;;5.60;5.10;;;;;;;15.19;74.73;99476.06;520661;1092;116785;-58
2021/08/10 20:30:52;;;;;;;6.13;5.43;;;;;;;15.04;75.14;99479.02;523673;1092;117113;-59
2021/08/10 20:40:58;;;;;;;7.77;5.27;;;;;;;14.88;75.44;99482.13;512033;1092;116112;-57
2021/08/10 20:51:05;;;;;;;7.30;6.63;;;;;;;14.70;75.60;99473.90;515161;1092;116569;-58
2021/08/10 21:01:12;;;;;;;6.43;5.83;;;;;;;14.51;76.02;99480.73;520799;1092;117211;-57
2021/08/10 21:11:19;;;;;;;7.33;6.73;;;;;;;14.38;76.28;99464.22;518888;1092;116065;-58
2021/08/10 21:21:26;;;;;;;10.50;6.30;;;;;;;14.26;76.43;99482.75;530921;1092;116558;-58
2021/08/10 21:31:33;;;;;;;9.80;6.77;;;;;;;14.21;76.86;99492.00;520612;1093;116884;-57
2021/08/10 21:41:40;;;;;;;8.60;7.77;;;;;;;14.19;77.35;99496.55;530812;1092;116592;-57
2021/08/10 21:51:46;;;;;;;7.20;6.43;;;;;;;14.43;77.86;99504.28;530891;1092;116264;-58
2021/08/10 22:01:53;;;;;;;9.65;8.75;;;;;;;14.71;77.83;99523.99;530021;1092;116665;-58
2021/08/10 22:12:00;;;;;;;9.13;7.83;;;;;;;14.83;77.75;99529.27;525879;1093;115987;-57
2021/08/10 22:22:07;;;;;;;8.73;7.80;;;;;;;14.96;77.60;99534.38;526691;1092;116097;-56
2021/08/10 22:32:14;;;;;;;9.50;8.27;;;;;;;15.03;77.72;99532.05;518834;1092;116971;-57
2021/08/10 22:42:21;;;;;;;8.30;7.43;;;;;;;15.07;77.76;99534.31;530922;1093;116288;-58
2021/08/10 22:52:27;;;;;;;13.87;7.60;;;;;;;15.16;77.74;99539.78;530892;1093;116003;-58
2021/08/10 23:02:34;;;;;;;11.17;8.03;;;;;;;15.06;77.57;99529.97;530962;1091;116535;-59
2021/08/10 23:12:40;;;;;;;7.53;6.17;;;;;;;14.94;77.65;99529.20;520157;1091;116212;-58
2021/08/10 23:22:48;;;;;;;7.80;5.48;;;;;;;14.75;77.89;99527.26;530247;1092;116529;-58
2021/08/10 23:32:56;;;;;;;6.80;5.10;;;;;;;14.66;78.05;99522.70;530927;1092;118027;-58
2021/08/10 23:43:03;;;;;;;6.70;6.10;;;;;;;14.66;78.10;99526.19;526098;1092;117529;-57
2021/08/10 23:53:10;;;;;;;7.07;6.40;;;;;;;14.71;78.36;99523.14;530208;1092;116539;-58
